createdAt,value
2018-02-05T03:43:45.629Z,86.43
2018-02-05T03:46:16.102Z,86.51
2018-02-05T03:48:45.172Z,86.59
2018-02-05T03:51:15.716Z,86.99
2018-02-05T03:53:43.898Z,87.47
2018-02-05T03:56:13.029Z,87.47
2018-02-05T03:58:40.806Z,87.68
2018-02-05T04:01:09.785Z,87.99
2018-02-05T04:03:37.904Z,88.26
2018-02-05T04:06:05.813Z,88.39
2018-02-05T04:08:33.979Z,88.42
2018-02-05T04:11:01.823Z,88.75
2018-02-05T04:13:29.746Z,88.82
2018-02-05T04:15:57.569Z,88.82
2018-02-05T04:18:25.307Z,88.80
2018-02-05T04:20:53.113Z,88.88
2018-02-05T04:23:21.245Z,88.72
2018-02-05T04:25:49.420Z,88.55
2018-02-05T04:28:17.852Z,88.45
2018-02-05T04:30:45.629Z,88.37
2018-02-05T04:33:13.715Z,88.40
2018-02-05T04:35:41.817Z,88.23
2018-02-05T04:38:09.675Z,88.20
2018-02-05T04:40:37.478Z,88.05
2018-02-05T04:43:05.713Z,88.00
2018-02-05T04:45:33.427Z,88.05
2018-02-05T04:48:01.147Z,88.12
2018-02-05T04:50:28.969Z,88.10
2018-02-05T04:52:56.736Z,88.03
2018-02-05T04:55:25.274Z,87.90
2018-02-05T04:57:52.994Z,87.91
2018-02-05T05:00:20.763Z,87.81
2018-02-05T05:02:48.764Z,87.65
2018-02-05T05:05:16.839Z,87.68
2018-02-05T05:07:44.888Z,87.40
2018-02-05T05:10:13.077Z,87.42
2018-02-05T05:12:40.861Z,87.22
2018-02-05T05:15:08.893Z,87.06
2018-02-05T05:17:36.677Z,87.12
2018-02-05T05:20:04.382Z,87.23
2018-02-05T05:22:32.504Z,87.40
2018-02-05T05:25:00.259Z,87.48
2018-02-05T05:27:28.165Z,87.43
2018-02-05T05:29:55.908Z,87.63
2018-02-05T05:32:23.700Z,87.78
2018-02-05T05:34:51.488Z,87.63
2018-02-05T05:37:19.189Z,87.50
2018-02-05T05:39:46.950Z,87.57
2018-02-05T05:42:14.741Z,87.61
2018-02-05T05:44:42.503Z,87.42
2018-02-05T05:47:10.283Z,87.40
2018-02-05T05:49:38.454Z,87.21
2018-02-05T05:52:06.193Z,87.25
2018-02-05T05:54:33.878Z,87.20
2018-02-05T05:57:01.604Z,87.03
2018-02-05T05:59:29.323Z,87.13
2018-02-05T06:01:57.432Z,87.22
2018-02-05T06:04:25.133Z,87.17
2018-02-05T06:06:52.827Z,87.22
2018-02-05T06:09:20.582Z,87.23
2018-02-05T06:11:48.270Z,87.29
2018-02-05T06:14:15.972Z,87.09
2018-02-05T06:16:45.952Z,87.18
2018-02-05T06:19:13.960Z,87.27
2018-02-05T06:21:41.635Z,87.49
2018-02-05T06:24:09.433Z,87.51
2018-02-05T06:26:37.114Z,87.76
2018-02-05T06:29:05.070Z,87.79
2018-02-05T06:31:32.797Z,87.78
2018-02-05T06:34:00.522Z,87.76
2018-02-05T06:36:28.671Z,88.28
2018-02-05T06:38:56.363Z,88.40
2018-02-05T06:41:24.068Z,88.61
2018-02-05T06:43:51.747Z,88.48
2018-02-05T06:46:19.408Z,88.41
2018-02-05T06:48:47.102Z,88.57
2018-02-05T06:51:26.989Z,88.66
2018-02-05T06:54:06.628Z,88.56
2018-02-05T06:56:34.847Z,88.59
2018-02-05T06:59:02.534Z,88.63
2018-02-05T07:01:30.362Z,88.58
2018-02-05T07:03:58.030Z,88.50
2018-02-05T07:06:26.073Z,88.55
2018-02-05T07:08:54.117Z,88.55
2018-02-05T07:11:21.803Z,88.56
2018-02-05T07:13:49.458Z,88.82
2018-02-05T07:16:17.165Z,88.89
2018-02-05T07:18:44.924Z,88.87
2018-02-05T07:21:12.585Z,88.82
2018-02-05T07:23:41.985Z,88.82
2018-02-05T07:26:10.185Z,88.74
2018-02-05T07:28:37.911Z,88.75
2018-02-05T07:31:05.596Z,88.78
2018-02-05T07:33:33.259Z,88.61
2018-02-05T07:36:00.947Z,88.58
2018-02-05T07:38:28.603Z,88.58
2018-02-05T07:40:56.279Z,88.09
2018-02-05T07:43:23.965Z,88.06
2018-02-05T07:45:51.661Z,87.59
2018-02-05T07:48:19.400Z,87.76
2018-02-05T07:50:47.104Z,87.30
2018-02-05T07:53:14.777Z,87.10
2018-02-05T07:55:42.420Z,86.73
2018-02-05T07:58:10.041Z,86.99
2018-02-05T08:00:37.706Z,87.05
2018-02-05T08:03:05.341Z,87.12
2018-02-05T08:05:32.984Z,86.73
2018-02-05T08:08:00.718Z,86.59
2018-02-05T08:10:29.316Z,86.25
2018-02-05T08:12:57.352Z,86.21
2018-02-05T08:15:24.986Z,86.02
2018-02-05T08:17:52.644Z,86.03
2018-02-05T08:20:20.579Z,86.12
2018-02-05T08:22:48.256Z,85.83
2018-02-05T08:25:15.883Z,84.95
2018-02-05T08:27:44.034Z,85.16
2018-02-05T08:30:11.726Z,85.34
2018-02-05T08:32:39.388Z,84.89
2018-02-05T08:35:07.418Z,84.92
2018-02-05T08:37:35.518Z,84.87
2018-02-05T08:40:03.145Z,84.50
2018-02-05T08:42:30.937Z,84.60
2018-02-05T08:44:58.555Z,84.86
2018-02-05T08:47:26.250Z,84.57
2018-02-05T08:49:53.907Z,84.37
2018-02-05T08:52:22.096Z,84.40
2018-02-05T08:54:49.744Z,84.36
2018-02-05T08:57:17.428Z,83.92
2018-02-05T08:59:45.157Z,84.46
2018-02-05T09:02:12.808Z,83.70
2018-02-05T09:04:40.506Z,84.10
2018-02-05T09:07:08.467Z,83.60
2018-02-05T09:09:36.183Z,83.57
2018-02-05T09:12:03.864Z,83.51
2018-02-05T09:14:31.537Z,83.41
2018-02-05T09:16:59.167Z,83.89
2018-02-05T09:19:26.842Z,83.82
2018-02-05T09:21:54.960Z,83.60
2018-02-05T09:24:22.680Z,83.15
2018-02-05T09:26:50.384Z,83.10
2018-02-05T09:29:18.029Z,83.53
2018-02-05T09:31:46.033Z,83.03
2018-02-05T09:34:13.982Z,82.83
2018-02-05T09:36:41.698Z,83.11
2018-02-05T09:39:09.419Z,82.85
2018-02-05T09:41:37.046Z,82.23
2018-02-05T09:44:04.709Z,82.93
2018-02-05T09:46:32.347Z,82.43
2018-02-05T09:49:00.077Z,82.42
2018-02-05T09:51:27.743Z,82.40
2018-02-05T09:53:55.440Z,81.95
2018-02-05T09:56:23.100Z,81.98
2018-02-05T09:58:50.858Z,82.48
2018-02-05T10:01:18.600Z,81.85
2018-02-05T10:03:46.338Z,81.74
2018-02-05T10:06:14.095Z,81.82
2018-02-05T10:08:42.082Z,80.94
2018-02-05T10:11:09.827Z,81.10
2018-02-05T10:13:37.550Z,81.45
2018-02-05T10:16:05.586Z,81.17
2018-02-05T10:18:33.278Z,80.27
2018-02-05T10:21:01.021Z,80.41
2018-02-05T10:23:28.836Z,80.94
2018-02-05T10:25:56.571Z,79.73
2018-02-05T10:28:24.344Z,79.86
2018-02-05T10:30:52.070Z,79.26
2018-02-05T10:33:19.837Z,79.27
2018-02-05T10:35:47.640Z,79.17
2018-02-05T10:38:15.375Z,79.51
2018-02-05T10:40:43.121Z,78.82
2018-02-05T10:43:10.851Z,79.03
2018-02-05T10:45:38.596Z,77.82
2018-02-05T10:48:06.384Z,78.28
2018-02-05T10:50:34.215Z,79.04
2018-02-05T10:53:02.364Z,79.30
2018-02-05T10:55:30.128Z,78.33
2018-02-05T10:57:57.894Z,77.71
2018-02-05T11:00:25.720Z,78.14
2018-02-05T11:02:53.597Z,78.04
2018-02-05T11:05:21.358Z,76.76
2018-02-05T11:07:49.084Z,77.59
2018-02-05T11:10:17.352Z,78.21
2018-02-05T11:12:45.824Z,78.57
2018-02-05T11:15:14.665Z,79.49
2018-02-05T11:17:43.556Z,78.47
2018-02-05T11:20:12.507Z,76.29
2018-02-05T11:22:41.524Z,76.43
2018-02-05T11:25:14.423Z,75.91
2018-02-05T11:27:53.737Z,75.15
2018-02-05T11:34:04.224Z,76.74
2018-02-05T11:36:36.859Z,75.23
2018-02-05T11:39:36.091Z,74.18
2018-02-05T11:42:03.886Z,74.62
2018-02-05T11:44:31.611Z,74.88
2018-02-05T11:46:59.465Z,75.46
2018-02-05T11:49:29.760Z,75.17
2018-02-05T11:51:58.810Z,75.86
2018-02-05T11:54:26.542Z,75.07
2018-02-05T13:15:19.788Z,71.85
2018-02-05T13:18:01.149Z,71.82
2018-02-05T13:22:02.826Z,71.96
2018-02-05T13:24:35.621Z,70.36
2018-02-05T13:27:38.480Z,70.63
2018-02-05T14:05:43.863Z,72.35
2018-02-05T14:09:18.548Z,72.76
2018-02-05T14:11:48.767Z,72.98
2018-02-05T14:17:06.034Z,72.62
2018-02-05T14:19:36.319Z,72.75
2018-02-05T14:22:21.464Z,72.89
2018-02-05T14:30:49.102Z,72.76
2018-02-05T14:33:39.568Z,73.05
2018-02-05T14:36:12.484Z,73.58
2018-02-05T14:38:43.252Z,73.42
2018-02-05T14:41:11.794Z,73.23
2018-02-05T14:48:01.436Z,72.71
2018-02-05T14:50:40.083Z,73.19
2018-02-05T14:53:14.578Z,71.43
2018-02-05T14:55:46.510Z,72.00
2018-02-05T14:58:26.302Z,72.19
2018-02-05T15:01:06.800Z,72.27
2018-02-05T15:03:37.098Z,71.85
2018-02-05T15:23:19.303Z,71.32
2018-02-05T15:25:54.046Z,71.59
2018-02-05T15:28:21.925Z,71.66
2018-02-05T15:30:50.091Z,71.92
2018-02-05T15:33:17.905Z,71.96
2018-02-05T15:35:47.899Z,71.36
2018-02-05T15:38:15.695Z,71.66
2018-02-05T15:40:45.276Z,72.05
2018-02-05T15:43:13.244Z,72.33
2018-02-05T15:45:41.799Z,72.53
2018-02-05T15:48:09.556Z,72.72
2018-02-05T15:50:37.366Z,72.64
2018-02-05T15:53:05.235Z,72.72
2018-02-05T15:55:33.025Z,72.93
2018-02-05T15:58:00.780Z,73.16
2018-02-05T16:00:28.890Z,72.67
2018-02-05T16:02:56.640Z,72.80
2018-02-05T16:05:24.354Z,72.88
2018-02-05T16:07:52.174Z,73.13
2018-02-05T16:10:20.020Z,73.28
2018-02-05T16:12:47.936Z,73.42
2018-02-05T16:15:15.723Z,73.68
2018-02-05T16:17:43.937Z,73.47
2018-02-05T16:20:11.820Z,73.77
2018-02-05T16:25:36.997Z,74.00
2018-02-05T16:28:10.588Z,74.27
2018-02-05T16:30:38.362Z,74.47
2018-02-05T16:33:08.807Z,74.79
2018-02-05T16:35:37.194Z,75.13
2018-02-05T16:38:08.074Z,75.24
2018-02-05T16:40:43.951Z,75.20
2018-02-05T16:43:18.279Z,75.51
2018-02-05T16:45:47.175Z,75.33
2018-02-05T16:48:16.280Z,74.94
2018-02-05T16:50:45.130Z,75.22
2018-02-05T16:53:13.223Z,75.11
2018-02-05T16:55:42.519Z,75.65
2018-02-05T16:58:14.134Z,75.95
2018-02-05T17:00:52.975Z,75.88
2018-02-05T17:03:20.770Z,75.93
2018-02-05T17:05:49.250Z,76.03
2018-02-05T17:08:18.591Z,76.25
2018-02-05T17:10:46.395Z,76.03
2018-02-05T17:16:00.808Z,76.13
2018-02-05T17:18:38.500Z,76.27
2018-02-05T17:21:07.221Z,76.67
2018-02-05T17:23:35.083Z,76.38
2018-02-05T17:26:02.942Z,76.40
2018-02-05T17:28:31.056Z,75.85
2018-02-05T17:30:59.132Z,76.08
2018-02-05T17:33:26.955Z,76.43
2018-02-05T17:35:54.720Z,76.47
2018-02-05T17:38:22.538Z,76.44
2018-02-05T17:40:50.558Z,76.63
2018-02-05T17:43:18.726Z,76.73
2018-02-05T17:45:49.683Z,76.83
2018-02-05T17:48:17.491Z,77.24
2018-02-05T17:50:45.349Z,76.97
2018-02-05T17:53:13.127Z,76.32
2018-02-05T17:55:40.887Z,76.45
2018-02-05T17:58:08.631Z,76.63
2018-02-05T18:00:36.370Z,76.59
2018-02-05T18:03:04.147Z,76.79
2018-02-05T18:05:33.142Z,76.68
2018-02-05T18:08:03.146Z,77.25
2018-02-05T18:10:30.918Z,77.21
2018-02-05T18:12:58.606Z,77.13
2018-02-05T18:15:26.457Z,77.45
2018-02-05T18:17:54.199Z,77.53
2018-02-05T18:20:21.953Z,77.83
2018-02-05T18:22:49.736Z,77.72
2018-02-05T18:25:17.476Z,77.80
2018-02-05T18:27:45.127Z,78.03
2018-02-05T18:30:12.870Z,78.14
2018-02-05T18:32:40.810Z,78.25
2018-02-05T18:35:08.454Z,78.46
2018-02-05T18:37:36.238Z,78.46
2018-02-05T18:40:03.953Z,78.49
2018-02-05T18:42:31.725Z,78.47
2018-02-05T18:44:59.956Z,78.47
2018-02-05T18:47:27.636Z,78.55
2018-02-05T18:49:55.354Z,78.59
2018-02-05T18:52:23.000Z,78.74
2018-02-05T18:54:50.593Z,78.78
2018-02-05T18:57:18.659Z,78.86
2018-02-05T18:59:46.364Z,78.92
2018-02-05T19:02:22.791Z,79.00
2018-02-05T19:04:50.513Z,79.00
2018-02-05T19:07:18.190Z,79.04
2018-02-05T19:09:45.894Z,79.13
2018-02-05T19:12:13.851Z,79.29
2018-02-05T19:14:41.514Z,79.48
2018-02-05T19:17:09.510Z,79.59
2018-02-05T19:19:38.694Z,79.88
2018-02-05T19:22:06.823Z,80.06
2018-02-05T19:24:34.429Z,80.21
2018-02-05T19:27:02.103Z,80.25
2018-02-05T19:29:29.801Z,80.49
2018-02-05T19:31:57.475Z,80.47
2018-02-05T19:34:25.122Z,80.37
2018-02-05T19:36:52.852Z,80.45
2018-02-05T19:39:23.833Z,80.46
2018-02-05T19:41:51.760Z,80.52
2018-02-05T19:44:19.399Z,80.42
2018-02-05T19:46:47.034Z,80.23
2018-02-05T19:49:14.884Z,80.02
2018-02-05T19:51:42.903Z,79.95
2018-02-05T19:54:10.636Z,79.93
2018-02-05T19:56:38.378Z,79.88
2018-02-05T19:59:06.051Z,79.83
2018-02-05T20:01:34.534Z,79.83
2018-02-05T20:04:02.181Z,79.84
2018-02-05T20:06:29.868Z,79.84
2018-02-05T20:08:58.231Z,79.91
2018-02-05T20:11:25.937Z,79.96
2018-02-05T20:13:53.656Z,80.05
2018-02-05T20:16:21.788Z,80.66
2018-02-05T20:18:49.481Z,81.89
2018-02-05T20:21:19.682Z,81.88
2018-02-05T20:23:49.914Z,82.60
2018-02-05T20:26:17.682Z,82.54
2018-02-05T20:28:46.616Z,82.73
2018-02-05T20:31:14.602Z,83.66
2018-02-05T20:33:42.320Z,83.65
2018-02-05T20:36:10.040Z,85.08
2018-02-05T20:38:39.224Z,85.71
2018-02-05T20:41:06.965Z,86.45
2018-02-05T20:43:34.642Z,86.04
2018-02-05T20:46:02.359Z,86.34
2018-02-05T20:48:29.976Z,86.66
2018-02-05T20:50:57.655Z,86.73
2018-02-05T20:53:25.448Z,86.92
2018-02-05T20:55:53.123Z,86.87
2018-02-05T20:58:20.829Z,86.95
2018-02-05T21:00:48.449Z,87.06
2018-02-05T21:03:16.102Z,86.74
2018-02-05T21:05:43.715Z,87.40
2018-02-05T21:08:11.396Z,87.23
2018-02-05T21:10:39.011Z,87.62
2018-02-05T21:13:06.608Z,87.66
2018-02-05T21:15:36.663Z,88.17
2018-02-05T21:18:05.067Z,88.27
2018-02-05T21:20:32.891Z,88.20
2018-02-05T21:23:00.549Z,88.36
2018-02-05T21:25:28.168Z,88.25
2018-02-05T21:27:56.031Z,88.37
2018-02-05T21:30:24.600Z,88.96
2018-02-05T21:32:52.496Z,88.58
2018-02-05T21:35:20.131Z,88.54
2018-02-05T21:37:47.752Z,88.31
2018-02-05T21:40:15.702Z,88.47
2018-02-05T21:42:43.303Z,88.70
2018-02-05T21:45:11.147Z,88.87
2018-02-05T21:47:38.763Z,88.75
2018-02-05T21:50:06.924Z,88.97
2018-02-05T21:52:35.969Z,88.99
2018-02-05T21:55:03.845Z,89.02
2018-02-05T21:57:31.448Z,88.99
2018-02-05T21:59:59.054Z,89.31
2018-02-05T22:02:26.635Z,89.12
2018-02-05T22:04:54.723Z,88.99
2018-02-05T22:07:22.597Z,88.95
2018-02-05T22:09:50.267Z,89.27
2018-02-05T22:12:17.882Z,89.21
2018-02-05T22:14:45.483Z,89.26
2018-02-05T22:17:13.161Z,89.34
2018-02-05T22:19:41.465Z,89.47
2018-02-05T22:22:09.346Z,89.40
2018-02-05T22:24:37.371Z,89.40
2018-02-05T22:27:05.008Z,89.38
2018-02-05T22:29:32.859Z,89.34
2018-02-05T22:32:00.534Z,89.27
2018-02-05T22:34:28.457Z,89.17
2018-02-05T22:36:56.207Z,89.28
2018-02-05T22:39:23.982Z,89.16
2018-02-05T22:41:51.663Z,89.18
2018-02-05T22:44:19.351Z,89.12
2018-02-05T22:46:46.958Z,89.15
2018-02-05T22:49:14.581Z,89.34
2018-02-05T22:51:42.232Z,89.40
2018-02-05T22:54:09.858Z,89.30
2018-02-05T22:56:37.482Z,89.20
2018-02-05T22:59:05.090Z,89.21
2018-02-05T23:01:32.722Z,89.04
2018-02-05T23:04:04.187Z,88.97
2018-02-05T23:06:33.787Z,88.80
2018-02-05T23:09:01.802Z,88.75
2018-02-05T23:11:29.761Z,88.63
2018-02-05T23:13:57.648Z,88.44
2018-02-05T23:16:25.288Z,88.25
2018-02-05T23:18:52.895Z,88.24
2018-02-05T23:21:20.543Z,88.25
2018-02-05T23:23:48.123Z,88.24
2018-02-05T23:26:15.776Z,88.25
2018-02-05T23:28:43.704Z,88.17
2018-02-05T23:31:11.677Z,88.29
2018-02-05T23:33:39.280Z,88.22
2018-02-05T23:36:06.923Z,88.16
2018-02-05T23:38:34.518Z,88.23
2018-02-05T23:41:02.136Z,88.13
2018-02-05T23:43:30.179Z,88.15
2018-02-05T23:45:57.900Z,88.24
2018-02-05T23:48:25.635Z,88.24
2018-02-05T23:50:53.342Z,88.38
2018-02-05T23:53:21.116Z,88.29
2018-02-05T23:55:48.686Z,88.30
2018-02-05T23:58:16.336Z,88.25
